Time;durP1;ratioP1;P1;durP2;ratioP2;P2;SDS_P1;SDS_P2;PMS_P1;PMS_P2;Temp;Humidity;BMP_temperature;BMP_pressure;BME280_temperature;BME280_humidity;BME280_pressure;Samples;Min_cycle;Max_cycle;Signal;HPM_P1;HPM_P2
2023/11/27 00:00:05;;;;;;;;;;;;;;;20.76;47.62;100529.91;2069438;28;6120;-66
2023/11/27 00:01:08;;;;;;;;;;;;;;;20.77;47.31;100537.13;2070610;28;2104;-67
2023/11/27 00:02:09;;;;;;;;;;;;;;;20.75;47.56;100529.16;2069460;28;2175;-67
2023/11/27 00:03:11;;;;;;;;;;;;;;;20.75;47.45;100534.19;2070446;28;2204;-67
2023/11/27 00:04:12;;;;;;;;;;;;;;;20.74;47.43;100533.44;2067969;28;2223;-67
2023/11/27 00:05:14;;;;;;;;;;;;;;;20.75;47.24;100534.19;2069134;28;2266;-66
2023/11/27 00:06:15;;;;;;;;;;;;;;;20.75;47.33;100528.41;2068468;28;2179;-66
2023/11/27 00:07:17;;;;;;;;;;;;;;;20.74;47.54;100533.44;2066590;28;2121;-67
2023/11/27 00:08:18;;;;;;;;;;;;;;;20.74;47.44;100527.69;2068077;28;1949;-66
2023/11/27 00:09:21;;;;;;;;;;;;;;;20.75;47.25;100523.41;2068360;28;2294;-67
2023/11/27 00:10:22;;;;;;;;;;;;;;;20.75;47.47;100517.66;2069574;28;2034;-66
2023/11/27 00:11:24;;;;;;;;;;;;;;;20.75;47.53;100522.66;2066574;28;2186;-66
2023/11/27 00:12:25;;;;;;;;;;;;;;;20.74;47.48;100527.69;2069367;28;2159;-66
2023/11/27 00:13:27;;;;;;;;;;;;;;;20.75;47.29;100525.53;2069580;28;2167;-66
2023/11/27 00:14:28;;;;;;;;;;;;;;;20.76;47.46;100532.78;2069019;28;2477;-67
2023/11/27 00:15:30;;;;;;;;;;;;;;;20.75;47.52;100523.41;2068518;28;2215;-66
2023/11/27 00:16:31;;;;;;;;;;;;;;;20.75;47.20;100528.41;2069118;28;2163;-66
2023/11/27 00:17:33;;;;;;;;;;;;;;;20.75;47.50;100511.91;2068637;28;2216;-66
2023/11/27 00:18:35;;;;;;;;;;;;;;;20.75;47.54;100522.66;2069135;28;2167;-67
2023/11/27 00:19:36;;;;;;;;;;;;;;;20.76;47.22;100518.41;2069582;28;2152;-67
2023/11/27 00:20:37;;;;;;;;;;;;;;;20.77;47.65;100519.88;2069298;28;2112;-66
2023/11/27 00:21:39;;;;;;;;;;;;;;;20.77;47.79;100531.38;2068556;28;2489;-67
2023/11/27 00:22:40;;;;;;;;;;;;;;;20.76;47.96;100527.78;2068663;28;2305;-66
2023/11/27 00:23:42;;;;;;;;;;;;;;;20.77;48.05;100532.13;2069831;28;2155;-66
2023/11/27 00:24:43;;;;;;;;;;;;;;;20.76;47.73;100536.41;2069200;28;2196;-67
2023/11/27 00:25:45;;;;;;;;;;;;;;;20.77;47.97;100531.38;2070560;28;2210;-66
2023/11/27 00:26:46;;;;;;;;;;;;;;;20.75;47.84;100526.28;2070734;28;2202;-67
2023/11/27 00:27:47;;;;;;;;;;;;;;;20.75;47.93;100517.66;2068741;28;2187;-66
2023/11/27 00:28:49;;;;;;;;;;;;;;;20.74;47.80;100516.19;2067039;28;2399;-67
2023/11/27 00:29:51;;;;;;;;;;;;;;;20.75;48.02;100529.16;2069878;28;2374;-67
2023/11/27 00:30:52;;;;;;;;;;;;;;;20.74;47.77;100527.69;2069006;28;6256;-66
2023/11/27 00:31:54;;;;;;;;;;;;;;;20.74;47.68;100515.44;2067267;28;1618;-67
2023/11/27 00:32:55;;;;;;;;;;;;;;;20.74;47.63;100524.81;2069148;28;2418;-66
2023/11/27 00:33:57;;;;;;;;;;;;;;;20.73;47.49;100520.47;2069041;28;2450;-67
2023/11/27 00:34:58;;;;;;;;;;;;;;;20.74;47.58;100510.44;2070414;28;2163;-66
2023/11/27 00:36:00;;;;;;;;;;;;;;;20.73;47.46;100508.97;2067095;28;2501;-67
2023/11/27 00:37:01;;;;;;;;;;;;;;;20.72;47.65;100518.97;2067512;28;2226;-66
2023/11/27 00:38:03;;;;;;;;;;;;;;;20.73;47.56;100514.72;2068108;28;1943;-67
2023/11/27 00:39:08;;;;;;;;;;;;;;;20.73;47.67;100520.47;2069715;28;2210;-66
2023/11/27 00:40:10;;;;;;;;;;;;;;;20.73;47.51;100514.72;2065437;28;2104;-66
2023/11/27 00:41:14;;;;;;;;;;;;;;;20.73;47.64;100519.72;2068658;28;2207;-66
2023/11/27 00:42:16;;;;;;;;;;;;;;;20.73;47.63;100514.72;2065802;28;2007;-67
2023/11/27 00:43:17;;;;;;;;;;;;;;;20.73;47.43;100514.72;2068166;28;2174;-66
2023/11/27 00:44:19;;;;;;;;;;;;;;;20.72;47.57;100518.97;2069237;28;2227;-67
2023/11/27 00:45:20;;;;;;;;;;;;;;;20.72;47.63;100518.97;2066973;28;2309;-67
2023/11/27 00:46:22;;;;;;;;;;;;;;;20.71;47.40;100506.72;2067650;28;2346;-67
2023/11/27 00:47:23;;;;;;;;;;;;;;;20.71;47.53;100500.25;2068718;28;2085;-67
2023/11/27 00:48:24;;;;;;;;;;;;;;;20.72;47.55;100510.34;2068922;28;2426;-67
2023/11/27 00:49:26;;;;;;;;;;;;;;;20.72;47.53;100507.47;2069409;28;2564;-66
2023/11/27 00:50:27;;;;;;;;;;;;;;;20.71;47.61;100514.63;2069679;28;2250;-66
2023/11/27 00:51:29;;;;;;;;;;;;;;;20.71;47.42;100508.88;2069294;28;2121;-67
2023/11/27 00:52:30;;;;;;;;;;;;;;;20.71;47.67;100509.63;2068081;28;2226;-66
2023/11/27 00:53:32;;;;;;;;;;;;;;;20.71;47.65;100500.25;2067615;28;2216;-66
2023/11/27 00:54:34;;;;;;;;;;;;;;;20.72;47.62;100510.34;2069528;28;2290;-67
2023/11/27 00:55:35;;;;;;;;;;;;;;;20.71;47.39;100506.72;2070124;28;2152;-66
2023/11/27 00:56:37;;;;;;;;;;;;;;;20.72;47.61;100495.97;2068858;28;2311;-66
2023/11/27 00:57:38;;;;;;;;;;;;;;;20.72;47.61;100490.19;2066648;28;2230;-67
2023/11/27 00:58:40;;;;;;;;;;;;;;;20.71;47.82;100500.25;2069241;28;2151;-66
2023/11/27 00:59:41;;;;;;;;;;;;;;;20.73;47.81;100503.22;2068985;28;2084;-67
2023/11/27 01:00:43;;;;;;;;;;;;;;;20.73;47.82;100502.44;2067300;28;5972;-66
2023/11/27 01:01:45;;;;;;;;;;;;;;;20.72;47.69;100501.72;2069406;28;2163;-67
2023/11/27 01:02:46;;;;;;;;;;;;;;;20.73;47.46;100503.22;2066087;28;2304;-66
2023/11/27 01:03:48;;;;;;;;;;;;;;;20.73;47.55;100500.31;2068813;28;2167;-66
2023/11/27 01:04:49;;;;;;;;;;;;;;;20.72;47.47;100498.84;2069211;28;2278;-66
2023/11/27 01:05:51;;;;;;;;;;;;;;;20.72;47.68;100495.97;2069931;28;2140;-66
2023/11/27 01:06:53;;;;;;;;;;;;;;;20.72;47.68;100495.97;2069748;28;2220;-66
2023/11/27 01:07:55;;;;;;;;;;;;;;;20.71;47.69;100488.75;2069763;28;2254;-66
2023/11/27 01:08:56;;;;;;;;;;;;;;;20.72;47.87;100493.06;2068990;28;2422;-67
2023/11/27 01:09:58;;;;;;;;;;;;;;;20.72;47.67;100495.97;2068381;28;2268;-67
2023/11/27 01:10:59;;;;;;;;;;;;;;;20.72;47.58;100490.19;2069120;28;2246;-67
2023/11/27 01:12:00;;;;;;;;;;;;;;;20.71;47.62;100489.47;2069225;28;2124;-67
2023/11/27 01:13:02;;;;;;;;;;;;;;;20.72;47.82;100490.19;2069966;28;2140;-67
2023/11/27 01:14:03;;;;;;;;;;;;;;;20.70;47.65;100493.72;2069345;28;2096;-66
2023/11/27 01:15:06;;;;;;;;;;;;;;;20.70;47.65;100487.25;2066253;28;2219;-67
2023/11/27 01:16:07;;;;;;;;;;;;;;;20.71;47.74;100485.84;2065674;28;2179;-66
2023/11/27 01:17:09;;;;;;;;;;;;;;;20.70;47.76;100481.50;2065016;28;2179;-66
2023/11/27 01:18:11;;;;;;;;;;;;;;;20.70;47.54;100487.25;2068733;28;2557;-67
2023/11/27 01:19:12;;;;;;;;;;;;;;;20.68;47.79;100487.16;2068469;28;2255;-68
2023/11/27 01:20:13;;;;;;;;;;;;;;;20.68;47.73;100490.81;2067848;28;2199;-66
2023/11/27 01:21:15;;;;;;;;;;;;;;;20.69;47.76;100488.66;2066991;28;2141;-66
2023/11/27 01:22:17;;;;;;;;;;;;;;;20.69;47.71;100488.66;2069906;28;2176;-67
2023/11/27 01:23:19;;;;;;;;;;;;;;;20.68;47.64;100501.53;2070539;28;2222;-67
2023/11/27 01:24:20;;;;;;;;;;;;;;;20.68;47.69;100492.91;2067991;28;2119;-66
2023/11/27 01:25:22;;;;;;;;;;;;;;;20.67;47.58;100494.31;2070550;28;2278;-67
2023/11/27 01:26:24;;;;;;;;;;;;;;;20.68;47.77;100490.03;2068557;28;2143;-66
2023/11/27 01:27:25;;;;;;;;;;;;;;;20.68;47.76;100498.66;2066227;28;2116;-67
2023/11/27 01:28:27;;;;;;;;;;;;;;;20.66;47.71;100493.59;2067850;28;2069;-66
2023/11/27 01:29:28;;;;;;;;;;;;;;;20.66;47.83;100487.84;2068889;28;2147;-66
2023/11/27 01:30:30;;;;;;;;;;;;;;;20.67;47.86;100488.56;2066098;28;6109;-67
2023/11/27 01:31:31;;;;;;;;;;;;;;;20.67;47.47;100488.56;2068434;28;2135;-67
2023/11/27 01:32:32;;;;;;;;;;;;;;;20.67;47.45;100494.31;2068416;28;2172;-66
2023/11/27 01:33:34;;;;;;;;;;;;;;;20.68;47.51;100487.16;2065952;28;2148;-66
2023/11/27 01:34:36;;;;;;;;;;;;;;;20.67;47.67;100489.31;2067799;28;2097;-67
2023/11/27 01:35:37;;;;;;;;;;;;;;;20.67;47.62;100489.31;2070739;28;2211;-67
2023/11/27 01:36:39;;;;;;;;;;;;;;;20.67;47.64;100486.44;2069396;28;2215;-66
2023/11/27 01:37:41;;;;;;;;;;;;;;;20.68;47.42;100481.41;2068468;28;2171;-66
2023/11/27 01:38:42;;;;;;;;;;;;;;;20.67;47.70;100486.44;2068925;28;2218;-66
2023/11/27 01:39:43;;;;;;;;;;;;;;;20.68;47.64;100487.16;2068276;28;2029;-67
2023/11/27 01:40:45;;;;;;;;;;;;;;;20.68;47.66;100487.16;2069061;28;2184;-66
2023/11/27 01:41:47;;;;;;;;;;;;;;;20.67;47.67;100477.06;2069260;28;2203;-66
2023/11/27 01:42:48;;;;;;;;;;;;;;;20.69;47.90;100488.66;2066509;28;2227;-66
2023/11/27 01:43:50;;;;;;;;;;;;;;;20.68;47.87;100484.28;2067309;28;2097;-66
2023/11/27 01:44:51;;;;;;;;;;;;;;;20.69;47.82;100485.78;2066354;28;2329;-66
2023/11/27 01:46:08;;;;;;;;;;;;;;;20.69;47.84;100488.66;2065907;28;2139;-66
2023/11/27 01:47:09;;;;;;;;;;;;;;;20.70;47.69;100487.25;2065318;28;2135;-66
2023/11/27 01:48:11;;;;;;;;;;;;;;;20.69;47.75;100485.78;2067492;28;2084;-66
2023/11/27 01:49:12;;;;;;;;;;;;;;;20.68;47.69;100484.28;2066076;28;2167;-67
2023/11/27 01:50:14;;;;;;;;;;;;;;;20.68;47.82;100475.66;2069591;28;2131;-66
2023/11/27 01:51:15;;;;;;;;;;;;;;;20.68;47.95;100479.28;2067914;28;2126;-66
2023/11/27 01:52:17;;;;;;;;;;;;;;;20.66;47.75;100476.34;2068328;28;2198;-66
2023/11/27 01:53:18;;;;;;;;;;;;;;;20.68;47.70;100478.53;2066861;28;1760;-66
2023/11/27 01:54:19;;;;;;;;;;;;;;;20.67;47.79;100479.94;2068316;28;2226;-66
2023/11/27 01:55:21;;;;;;;;;;;;;;;20.66;47.65;100479.22;2068920;28;2307;-66
2023/11/27 01:56:22;;;;;;;;;;;;;;;20.67;47.74;100477.06;2060375;28;2162;-67
2023/11/27 01:57:24;;;;;;;;;;;;;;;20.66;47.43;100476.34;2060487;28;2367;-67
2023/11/27 01:58:25;;;;;;;;;;;;;;;20.66;47.72;100475.56;2068601;28;2140;-66
2023/11/27 01:59:27;;;;;;;;;;;;;;;20.66;47.81;100475.56;2069118;28;2699;-66
2023/11/27 02:00:28;;;;;;;;;;;;;;;20.66;47.76;100469.81;2068026;28;6114;-67
2023/11/27 02:01:30;;;;;;;;;;;;;;;20.65;47.73;100462.59;2068396;28;2392;-66
2023/11/27 02:02:31;;;;;;;;;;;;;;;20.66;47.87;100464.06;2069605;28;2539;-66
2023/11/27 02:03:33;;;;;;;;;;;;;;;20.65;47.85;100471.22;2068984;28;2227;-67
2023/11/27 02:04:34;;;;;;;;;;;;;;;20.64;47.88;100458.25;2069099;28;2481;-67
2023/11/27 02:05:36;;;;;;;;;;;;;;;20.65;47.75;100457.56;2067857;28;2176;-66
2023/11/27 02:06:37;;;;;;;;;;;;;;;20.64;47.74;100455.38;2067594;28;2115;-67
2023/11/27 02:07:38;;;;;;;;;;;;;;;20.64;47.67;100461.13;2069180;28;2124;-66
2023/11/27 02:08:40;;;;;;;;;;;;;;;20.64;47.53;100458.25;2066373;28;2451;-66
2023/11/27 02:09:41;;;;;;;;;;;;;;;20.64;47.45;100455.38;2067605;28;2526;-67
2023/11/27 02:10:43;;;;;;;;;;;;;;;20.63;47.69;100453.88;2068275;28;2462;-66
2023/11/27 02:11:47;;;;;;;;;;;;;;;20.64;47.79;100452.50;2068833;28;2298;-66
2023/11/27 02:12:49;;;;;;;;;;;;;;;20.63;47.61;100448.13;2069706;28;2215;-66
2023/11/27 02:13:50;;;;;;;;;;;;;;;20.63;47.65;100454.63;2069285;28;2501;-67
2023/11/27 02:14:52;;;;;;;;;;;;;;;20.63;47.60;100451.75;2070396;28;2488;-66
2023/11/27 02:15:54;;;;;;;;;;;;;;;20.64;47.74;100450.34;2068374;28;2422;-66
2023/11/27 02:16:55;;;;;;;;;;;;;;;20.66;47.59;100449.69;2068876;28;2466;-67
2023/11/27 02:17:56;;;;;;;;;;;;;;;20.64;47.73;100450.34;2069195;28;2544;-66
2023/11/27 02:18:58;;;;;;;;;;;;;;;20.65;47.84;100451.09;2064938;28;2434;-67
2023/11/27 02:19:59;;;;;;;;;;;;;;;20.64;47.82;100443.88;2068581;28;2378;-67
2023/11/27 02:21:01;;;;;;;;;;;;;;;20.65;47.65;100440.31;2069303;28;2414;-66
2023/11/27 02:22:03;;;;;;;;;;;;;;;20.65;47.72;100451.81;2069591;28;2171;-66
2023/11/27 02:23:12;;;;;;;;;;;;;;;20.65;47.86;100448.22;2067608;28;2160;-66
2023/11/27 02:24:13;;;;;;;;;;;;;;;20.65;47.76;100453.97;2065082;28;2163;-66
2023/11/27 02:25:15;;;;;;;;;;;;;;;20.65;47.67;100446.06;2068068;28;2461;-66
2023/11/27 02:26:17;;;;;;;;;;;;;;;20.66;47.69;100447.56;2067936;28;2073;-67
2023/11/27 02:27:18;;;;;;;;;;;;;;;20.66;47.78;100446.81;2066294;28;2267;-66
2023/11/27 02:28:20;;;;;;;;;;;;;;;20.66;47.76;100441.06;2066505;28;2187;-66
2023/11/27 02:29:21;;;;;;;;;;;;;;;20.65;47.71;100434.56;2065997;28;2384;-66
2023/11/27 02:30:23;;;;;;;;;;;;;;;20.64;47.64;100438.84;2067570;28;6010;-67
2023/11/27 02:31:24;;;;;;;;;;;;;;;20.64;47.71;100438.84;2066887;28;2347;-66
2023/11/27 02:32:28;;;;;;;;;;;;;;;20.64;47.55;100438.13;2065095;28;2140;-66
2023/11/27 02:33:29;;;;;;;;;;;;;;;20.64;47.73;100438.84;2067611;28;2227;-66
2023/11/27 02:34:30;;;;;;;;;;;;;;;20.65;47.65;100442.47;2069644;28;2131;-66
2023/11/27 02:35:32;;;;;;;;;;;;;;;20.65;47.58;100445.34;2069197;28;2139;-66
2023/11/27 02:36:38;;;;;;;;;;;;;;;20.64;47.75;100441.00;2068914;28;2136;-66
2023/11/27 02:37:39;;;;;;;;;;;;;;;20.63;47.77;100439.50;2070295;28;2120;-66
2023/11/27 02:38:41;;;;;;;;;;;;;;;20.63;47.88;100434.47;2068580;28;2186;-66
2023/11/27 02:39:42;;;;;;;;;;;;;;;20.63;47.70;100443.13;2070051;28;2116;-66
2023/11/27 02:40:44;;;;;;;;;;;;;;;20.63;47.66;100448.13;2070423;28;2148;-66
2023/11/27 02:41:45;;;;;;;;;;;;;;;20.63;47.51;100436.63;2066735;28;2254;-66
2023/11/27 02:42:46;;;;;;;;;;;;;;;20.63;47.70;100442.38;2070946;28;2270;-66
2023/11/27 02:43:48;;;;;;;;;;;;;;;20.62;47.75;100435.16;2070563;28;2182;-66
2023/11/27 02:44:49;;;;;;;;;;;;;;;20.62;47.72;100438.03;2071128;28;2136;-66
2023/11/27 02:45:51;;;;;;;;;;;;;;;20.61;47.65;100439.41;2069695;28;2250;-66
2023/11/27 02:46:52;;;;;;;;;;;;;;;20.62;47.53;100432.28;2070651;28;2176;-67
2023/11/27 02:47:54;;;;;;;;;;;;;;;20.60;47.66;100432.94;2069816;28;2141;-66
2023/11/27 02:48:55;;;;;;;;;;;;;;;20.61;47.57;100439.41;2070335;28;2258;-67
2023/11/27 02:49:57;;;;;;;;;;;;;;;20.61;47.57;100439.41;2070779;28;2235;-66
2023/11/27 02:50:58;;;;;;;;;;;;;;;20.61;47.61;100431.53;2070164;28;2183;-67
2023/11/27 02:52:00;;;;;;;;;;;;;;;20.61;47.90;100439.41;2070298;28;2192;-66
2023/11/27 02:53:01;;;;;;;;;;;;;;;20.62;47.75;100435.16;2069055;28;2128;-66
2023/11/27 02:54:03;;;;;;;;;;;;;;;20.61;47.56;100439.41;2070787;28;2294;-67
2023/11/27 02:55:05;;;;;;;;;;;;;;;20.61;47.61;100436.53;2067456;28;2159;-66
2023/11/27 02:56:08;;;;;;;;;;;;;;;20.61;47.87;100428.66;2071147;28;2139;-66
2023/11/27 02:57:09;;;;;;;;;;;;;;;20.60;47.68;100427.19;2069158;28;2148;-66
2023/11/27 02:58:11;;;;;;;;;;;;;;;20.60;47.83;100426.44;2070846;28;2188;-66
2023/11/27 02:59:13;;;;;;;;;;;;;;;20.62;47.74;100426.53;2070502;28;2207;-66
2023/11/27 03:00:15;;;;;;;;;;;;;;;20.60;47.80;100420.69;2069133;28;6245;-66
2023/11/27 03:01:16;;;;;;;;;;;;;;;20.61;47.72;100427.91;2070832;28;2160;-66
2023/11/27 03:02:18;;;;;;;;;;;;;;;20.61;47.77;100425.03;2070581;28;2181;-67
2023/11/27 03:03:19;;;;;;;;;;;;;;;20.60;47.65;100418.56;2070341;28;2222;-67
2023/11/27 03:04:23;;;;;;;;;;;;;;;20.62;47.74;100417.91;2069632;28;2152;-67
2023/11/27 03:05:24;;;;;;;;;;;;;;;20.62;47.70;100423.66;2070288;28;2338;-67
2023/11/27 03:06:26;;;;;;;;;;;;;;;20.63;47.77;100430.88;2069196;28;2159;-66
2023/11/27 03:07:27;;;;;;;;;;;;;;;20.63;48.14;100425.13;2069210;28;2310;-66
2023/11/27 03:08:29;;;;;;;;;;;;;;;20.64;47.99;100423.72;2068659;28;2195;-66
2023/11/27 03:09:30;;;;;;;;;;;;;;;20.62;48.03;100418.63;2067233;28;2275;-66
2023/11/27 03:10:32;;;;;;;;;;;;;;;20.62;48.15;100427.25;2069518;28;2178;-66
2023/11/27 03:11:33;;;;;;;;;;;;;;;20.62;47.98;100415.03;2068436;28;2144;-66
2023/11/27 03:12:35;;;;;;;;;;;;;;;20.62;47.99;100420.78;2069002;28;2143;-66
2023/11/27 03:13:37;;;;;;;;;;;;;;;20.62;47.86;100424.38;2070534;28;2151;-67
2023/11/27 03:14:38;;;;;;;;;;;;;;;20.61;47.85;100416.41;2068813;28;2395;-66
2023/11/27 03:15:40;;;;;;;;;;;;;;;20.61;47.84;100420.03;2065872;28;2236;-66
2023/11/27 03:16:41;;;;;;;;;;;;;;;20.61;47.76;100410.66;2069622;28;2155;-66
2023/11/27 03:17:42;;;;;;;;;;;;;;;20.60;47.66;100409.19;2068748;28;2135;-66
2023/11/27 03:18:44;;;;;;;;;;;;;;;20.59;47.70;100414.22;2068235;28;2156;-67
2023/11/27 03:19:45;;;;;;;;;;;;;;;20.61;47.71;100404.91;2068795;28;2235;-67
2023/11/27 03:20:49;;;;;;;;;;;;;;;20.60;47.71;100403.44;2068700;28;2203;-66
2023/11/27 03:21:50;;;;;;;;;;;;;;;20.59;47.69;100402.72;2067600;28;2271;-66
2023/11/27 03:22:52;;;;;;;;;;;;;;;20.60;47.72;100403.44;2070462;28;2088;-67
2023/11/27 03:23:53;;;;;;;;;;;;;;;20.59;47.69;100401.94;2070455;28;2163;-66
2023/11/27 03:24:54;;;;;;;;;;;;;;;20.58;47.69;100400.47;2070911;28;2172;-66
2023/11/27 03:25:56;;;;;;;;;;;;;;;20.59;47.87;100399.06;2066415;28;2136;-67
2023/11/27 03:26:57;;;;;;;;;;;;;;;20.59;47.78;100396.19;2068807;28;2218;-66
2023/11/27 03:27:58;;;;;;;;;;;;;;;20.58;47.60;100389.72;2068757;28;2223;-66
2023/11/27 03:29:00;;;;;;;;;;;;;;;20.59;47.62;100396.19;2071541;28;2290;-66
2023/11/27 03:30:02;;;;;;;;;;;;;;;20.58;47.81;100388.97;2070174;28;2309;-67
2023/11/27 03:31:06;;;;;;;;;;;;;;;20.57;47.74;100390.34;2068025;28;6011;-66
2023/11/27 03:32:07;;;;;;;;;;;;;;;20.58;47.74;100394.72;2069161;28;2175;-66
2023/11/27 03:33:09;;;;;;;;;;;;;;;20.58;47.86;100391.84;2070046;28;2148;-66
2023/11/27 03:34:10;;;;;;;;;;;;;;;20.58;47.85;100388.97;2070084;28;2253;-66
2023/11/27 03:35:12;;;;;;;;;;;;;;;20.57;47.63;100387.47;2071331;28;2151;-66
2023/11/27 03:36:13;;;;;;;;;;;;;;;20.57;47.87;100390.34;2070284;28;2503;-66
2023/11/27 03:37:15;;;;;;;;;;;;;;;20.58;47.80;100383.22;2069594;28;2144;-66
2023/11/27 03:38:16;;;;;;;;;;;;;;;20.57;47.67;100390.34;2069295;28;2103;-66
2023/11/27 03:39:17;;;;;;;;;;;;;;;20.57;47.84;100393.25;2067351;28;2164;-66
2023/11/27 03:40:19;;;;;;;;;;;;;;;20.56;47.73;100386.75;2070900;28;2192;-66
2023/11/27 03:41:23;;;;;;;;;;;;;;;20.57;47.68;100387.47;2068393;28;2199;-66
2023/11/27 03:42:25;;;;;;;;;;;;;;;20.57;47.58;100387.47;2069169;28;2235;-66
2023/11/27 03:43:27;;;;;;;;;;;;;;;20.56;47.77;100389.63;2067779;28;2157;-66
2023/11/27 03:44:28;;;;;;;;;;;;;;;20.58;47.66;100383.22;2070280;28;2223;-66
2023/11/27 03:45:30;;;;;;;;;;;;;;;20.57;47.90;100387.47;2069875;28;2291;-66
2023/11/27 03:46:31;;;;;;;;;;;;;;;20.56;47.67;100381.00;2068785;28;2247;-66
2023/11/27 03:47:33;;;;;;;;;;;;;;;20.57;47.72;100384.59;2067281;28;2203;-66
2023/11/27 03:48:34;;;;;;;;;;;;;;;20.58;47.57;100378.19;2068171;28;2266;-66
2023/11/27 03:49:37;;;;;;;;;;;;;;;20.58;47.61;100383.22;2068056;28;2156;-66
2023/11/27 03:50:38;;;;;;;;;;;;;;;20.58;47.80;100383.94;2067189;28;2184;-66
2023/11/27 03:51:40;;;;;;;;;;;;;;;20.59;47.80;100387.56;2070633;28;2200;-66
2023/11/27 03:52:42;;;;;;;;;;;;;;;20.58;47.73;100388.97;2070319;28;2223;-66
2023/11/27 03:53:43;;;;;;;;;;;;;;;20.59;47.64;100388.31;2069083;28;2214;-66
2023/11/27 03:54:44;;;;;;;;;;;;;;;20.59;47.85;100391.19;2070227;28;2409;-66
2023/11/27 03:55:46;;;;;;;;;;;;;;;20.60;47.85;100380.44;2068747;28;2065;-66
2023/11/27 03:56:47;;;;;;;;;;;;;;;20.60;47.85;100380.44;2068726;28;2207;-66
2023/11/27 03:57:49;;;;;;;;;;;;;;;20.60;48.13;100386.91;2068949;28;2218;-66
2023/11/27 03:58:50;;;;;;;;;;;;;;;20.61;48.07;100387.63;2070797;28;2132;-66
2023/11/27 03:59:51;;;;;;;;;;;;;;;20.61;48.16;100376.13;2068983;28;2229;-66
2023/11/27 04:00:53;;;;;;;;;;;;;;;20.61;48.09;100376.13;2069638;28;5924;-66
2023/11/27 04:01:54;;;;;;;;;;;;;;;20.62;48.22;100372.59;2070285;28;2120;-66
2023/11/27 04:02:56;;;;;;;;;;;;;;;20.62;48.36;100384.13;2068878;28;2230;-66
2023/11/27 04:03:59;;;;;;;;;;;;;;;20.62;48.42;100383.38;2068748;28;2117;-66
2023/11/27 04:05:00;;;;;;;;;;;;;;;20.62;48.13;100374.75;2068335;28;2199;-66
2023/11/27 04:06:04;;;;;;;;;;;;;;;20.62;48.19;100377.63;2070404;28;2155;-66
2023/11/27 04:07:06;;;;;;;;;;;;;;;20.62;48.03;100384.13;2070055;28;2195;-66
2023/11/27 04:08:08;;;;;;;;;;;;;;;20.64;48.29;100377.72;2067766;28;2270;-66
2023/11/27 04:09:13;;;;;;;;;;;;;;;20.63;48.41;100379.09;2069265;28;2236;-66
2023/11/27 04:10:18;;;;;;;;;;;;;;;20.64;48.31;100380.59;2067118;28;2295;-66
2023/11/27 04:11:19;;;;;;;;;;;;;;;20.64;48.34;100381.31;2069101;28;2351;-66
2023/11/27 04:12:21;;;;;;;;;;;;;;;20.64;48.31;100374.81;2069950;28;2243;-66
2023/11/27 04:13:22;;;;;;;;;;;;;;;20.64;48.31;100381.31;2070239;28;2069;-66
2023/11/27 04:14:24;;;;;;;;;;;;;;;20.64;48.26;100369.06;2068952;28;2517;-66
2023/11/27 04:15:25;;;;;;;;;;;;;;;20.66;48.19;100378.53;2070120;28;2260;-66
2023/11/27 04:16:27;;;;;;;;;;;;;;;20.66;48.33;100381.41;2070162;28;2225;-66
2023/11/27 04:17:28;;;;;;;;;;;;;;;20.67;48.34;100382.84;2069119;28;2144;-66
2023/11/27 04:18:30;;;;;;;;;;;;;;;20.67;48.47;100376.38;2067816;28;2164;-66
2023/11/27 04:19:31;;;;;;;;;;;;;;;20.66;48.24;100377.75;2069725;28;2197;-66
2023/11/27 04:20:32;;;;;;;;;;;;;;;20.67;48.36;100385.00;2067373;28;2302;-65
2023/11/27 04:21:34;;;;;;;;;;;;;;;20.66;48.44;100369.13;2069456;28;2100;-66
2023/11/27 04:22:35;;;;;;;;;;;;;;;20.67;48.38;100374.22;2070228;28;2199;-66
2023/11/27 04:23:37;;;;;;;;;;;;;;;20.67;48.45;100376.38;2069113;28;2270;-66
2023/11/27 04:24:38;;;;;;;;;;;;;;;20.66;48.35;100378.53;2070554;28;2302;-66
2023/11/27 04:25:39;;;;;;;;;;;;;;;20.67;48.40;100376.38;2070308;28;2123;-67
2023/11/27 04:26:42;;;;;;;;;;;;;;;20.66;48.42;100377.75;2070212;28;2152;-66
2023/11/27 04:27:43;;;;;;;;;;;;;;;20.66;48.26;100366.25;2067013;28;2178;-65
2023/11/27 04:28:45;;;;;;;;;;;;;;;20.66;48.29;100369.13;2068894;28;2155;-66
2023/11/27 04:29:46;;;;;;;;;;;;;;;20.66;48.35;100366.25;2067421;28;2484;-66
2023/11/27 04:30:47;;;;;;;;;;;;;;;20.66;48.41;100366.25;2066184;28;6081;-66
2023/11/27 04:31:49;;;;;;;;;;;;;;;20.65;48.34;100364.78;2066089;28;2564;-66
2023/11/27 04:32:51;;;;;;;;;;;;;;;20.65;48.08;100367.66;2067013;28;2180;-66
2023/11/27 04:33:52;;;;;;;;;;;;;;;20.64;48.04;100358.31;2070040;28;2140;-66
2023/11/27 04:34:54;;;;;;;;;;;;;;;20.64;48.14;100364.06;2070433;28;2362;-66
2023/11/27 04:35:55;;;;;;;;;;;;;;;20.63;48.32;100368.31;2067228;28;2193;-66
2023/11/27 04:36:56;;;;;;;;;;;;;;;20.63;48.15;100359.69;2070416;28;2107;-65
2023/11/27 04:37:58;;;;;;;;;;;;;;;20.63;48.02;100370.47;2070360;28;2159;-66
2023/11/27 04:39:00;;;;;;;;;;;;;;;20.64;48.07;100366.19;2066787;28;2120;-66
2023/11/27 04:40:02;;;;;;;;;;;;;;;20.64;48.13;100358.31;2068543;28;2258;-66
2023/11/27 04:41:03;;;;;;;;;;;;;;;20.65;48.24;100359.03;2069537;28;2164;-66
2023/11/27 04:42:05;;;;;;;;;;;;;;;20.65;48.29;100356.16;2067935;28;2218;-66
2023/11/27 04:43:06;;;;;;;;;;;;;;;20.64;48.09;100352.53;2068045;28;2100;-66
2023/11/27 04:44:08;;;;;;;;;;;;;;;20.65;48.10;100361.91;2068166;28;2261;-65
2023/11/27 04:45:09;;;;;;;;;;;;;;;20.65;48.34;100353.28;2069856;28;2181;-65
2023/11/27 04:46:11;;;;;;;;;;;;;;;20.67;48.37;100356.22;2067234;28;2529;-65
2023/11/27 04:47:13;;;;;;;;;;;;;;;20.66;48.32;100354.75;2065665;28;2147;-66
2023/11/27 04:48:15;;;;;;;;;;;;;;;20.67;48.21;100356.22;2067135;28;2163;-66
2023/11/27 04:49:17;;;;;;;;;;;;;;;20.67;48.14;100356.22;2070625;28;2168;-66
2023/11/27 04:50:19;;;;;;;;;;;;;;;20.68;48.36;100361.34;2066883;28;2163;-66
2023/11/27 04:51:20;;;;;;;;;;;;;;;20.68;48.43;100351.94;2068475;28;2421;-66
2023/11/27 04:52:21;;;;;;;;;;;;;;;20.68;48.42;100357.69;2066254;28;2254;-66
2023/11/27 04:53:24;;;;;;;;;;;;;;;20.68;48.14;100363.44;2066906;28;2127;-66
2023/11/27 04:54:26;;;;;;;;;;;;;;;20.68;48.12;100357.69;2068633;28;2210;-65
2023/11/27 04:55:27;;;;;;;;;;;;;;;20.68;48.13;100360.56;2068576;28;2449;-66
2023/11/27 04:56:28;;;;;;;;;;;;;;;20.70;47.95;100360.66;2068557;28;2143;-66
2023/11/27 04:57:31;;;;;;;;;;;;;;;20.70;48.05;100361.38;2067386;28;2250;-66
2023/11/27 04:58:32;;;;;;;;;;;;;;;20.70;48.23;100360.66;2069012;28;2773;-66
2023/11/27 04:59:34;;;;;;;;;;;;;;;20.70;47.98;100360.66;2069275;28;2567;-66
2023/11/27 05:00:35;;;;;;;;;;;;;;;20.71;48.34;100359.28;2069476;28;6257;-66
2023/11/27 05:01:36;;;;;;;;;;;;;;;20.71;48.24;100367.91;2070438;28;2084;-66
2023/11/27 05:02:38;;;;;;;;;;;;;;;20.72;48.19;100366.47;2069088;28;2373;-66
2023/11/27 05:03:40;;;;;;;;;;;;;;;20.71;48.19;100362.16;2067745;28;2461;-65
2023/11/27 05:04:41;;;;;;;;;;;;;;;20.73;48.37;100358.59;2069088;28;2255;-66
2023/11/27 05:05:43;;;;;;;;;;;;;;;20.72;48.25;100354.97;2068416;28;1607;-66
2023/11/27 05:06:44;;;;;;;;;;;;;;;20.71;48.19;100354.25;2067740;28;2363;-65
2023/11/27 05:07:46;;;;;;;;;;;;;;;20.72;48.09;100352.09;2069412;28;2053;-66
2023/11/27 05:08:47;;;;;;;;;;;;;;;20.72;48.30;100354.97;2069116;28;2163;-66
2023/11/27 05:09:49;;;;;;;;;;;;;;;20.72;48.19;100357.84;2067481;28;1670;-65
2023/11/27 05:10:50;;;;;;;;;;;;;;;20.71;48.26;100353.50;2068185;28;2233;-65
2023/11/27 05:11:51;;;;;;;;;;;;;;;20.71;48.22;100350.63;2070098;28;2318;-66
2023/11/27 05:12:53;;;;;;;;;;;;;;;20.71;48.17;100351.38;2068829;28;2473;-65
2023/11/27 05:13:54;;;;;;;;;;;;;;;20.71;48.36;100350.63;2069357;28;2490;-66
2023/11/27 05:14:56;;;;;;;;;;;;;;;20.71;48.14;100344.88;2070023;28;2500;-66
2023/11/27 05:15:57;;;;;;;;;;;;;;;20.70;48.12;100346.25;2068920;28;2367;-66
2023/11/27 05:16:59;;;;;;;;;;;;;;;20.70;48.14;100337.63;2064819;28;2496;-66
2023/11/27 05:18:00;;;;;;;;;;;;;;;20.70;48.19;100343.38;2067375;28;2200;-65
2023/11/27 05:19:02;;;;;;;;;;;;;;;20.70;48.30;100343.38;2069619;28;2450;-66
2023/11/27 05:20:04;;;;;;;;;;;;;;;20.69;48.36;100336.91;2069702;28;2290;-66
2023/11/27 05:21:05;;;;;;;;;;;;;;;20.70;48.32;100335.50;2068178;28;2362;-66